EAG1KW EGHI-EGAC
Flight info
| Callsign | EAG1KW |
|---|---|
| Flight time | 1h 18m |
| Altitude | 18000 |
| Route | NORRY Q41 SILVA M605 DTY Y53 SAPCO N57 TNT Q4 WAL M146 ROBOP M147 MAGEE |
| Aircraft | AT76/M-SDFGIRY/S |
Departure
| Time | 2026-05-04 08:54 |
|---|---|
| Airport | Southampton Airport (EGHI) |
Arrival
| Time | 2026-05-04 10:13 |
|---|---|
| Airport | George Best Belfast City Airport (EGAC) |
| Time | Latitude | Longitude | Altitude | Speed | Heading |
|---|---|---|---|---|---|
| 2026-05-04 08:37 | 50.94987 | -1.36177 | 36 ft | 0 kts | 19° |
| 2026-05-04 08:47 | 50.94973 | -1.36185 | 36 ft | 4 kts | 19° |
| 2026-05-04 08:47 | 50.94952 | -1.36196 | 36 ft | 4 kts | 21° |
| 2026-05-04 08:47 | 50.94934 | -1.36215 | 36 ft | 4 kts | 84° |
| 2026-05-04 08:47 | 50.94939 | -1.36250 | 36 ft | 3 kts | 109° |
| 2026-05-04 08:48 | 50.94940 | -1.36255 | 36 ft | 0 kts | 109° |
| 2026-05-04 08:50 | 50.94938 | -1.36244 | 36 ft | 3 kts | 109° |
| 2026-05-04 08:50 | 50.94916 | -1.36145 | 36 ft | 11 kts | 111° |
| 2026-05-04 08:51 | 50.94867 | -1.36030 | 36 ft | 12 kts | 182° |
| 2026-05-04 08:51 | 50.94770 | -1.36080 | 36 ft | 15 kts | 200° |
| 2026-05-04 08:51 | 50.94675 | -1.36132 | 35 ft | 14 kts | 198° |
| 2026-05-04 08:51 | 50.94592 | -1.36100 | 35 ft | 12 kts | 131° |
| 2026-05-04 08:52 | 50.94564 | -1.35981 | 35 ft | 11 kts | 115° |
| 2026-05-04 08:52 | 50.94499 | -1.35974 | 34 ft | 13 kts | 199° |
| 2026-05-04 08:52 | 50.94401 | -1.36029 | 34 ft | 15 kts | 199° |
| 2026-05-04 08:52 | 50.94310 | -1.36031 | 35 ft | 5 kts | 189° |
| 2026-05-04 08:53 | 50.94310 | -1.36079 | 34 ft | 3 kts | 331° |
| 2026-05-04 08:54 | 50.98546 | -1.33959 | 2132 ft | 129 kts | 18° |
| 2026-05-04 08:55 | 50.99485 | -1.33483 | 2204 ft | 156 kts | 19° |
| 2026-05-04 08:55 | 51.00590 | -1.32910 | 2401 ft | 172 kts | 19° |
| 2026-05-04 08:55 | 51.01736 | -1.32320 | 2808 ft | 174 kts | 20° |
| 2026-05-04 08:55 | 51.02886 | -1.31715 | 3263 ft | 174 kts | 19° |
| 2026-05-04 08:57 | 51.11229 | -1.27255 | 5916 ft | 189 kts | 20° |
| 2026-05-04 09:01 | 51.29665 | -1.19761 | 10448 ft | 209 kts | 13° |
| 2026-05-04 09:01 | 51.31081 | -1.19188 | 10737 ft | 211 kts | 13° |
| 2026-05-04 09:01 | 51.32502 | -1.18608 | 11023 ft | 211 kts | 13° |
| 2026-05-04 09:01 | 51.33912 | -1.18036 | 11326 ft | 212 kts | 14° |
| 2026-05-04 09:02 | 51.35343 | -1.17452 | 11603 ft | 213 kts | 14° |
| 2026-05-04 09:02 | 51.36783 | -1.16863 | 11886 ft | 214 kts | 14° |
| 2026-05-04 09:02 | 51.38227 | -1.16275 | 12166 ft | 214 kts | 14° |
| 2026-05-04 09:02 | 51.39681 | -1.15681 | 12445 ft | 215 kts | 14° |
| 2026-05-04 09:03 | 51.41119 | -1.15094 | 12720 ft | 216 kts | 14° |
| 2026-05-04 09:03 | 51.42578 | -1.14501 | 12978 ft | 217 kts | 14° |
| 2026-05-04 09:03 | 51.44049 | -1.13898 | 13251 ft | 218 kts | 14° |
| 2026-05-04 09:03 | 51.45526 | -1.13295 | 13512 ft | 219 kts | 14° |
| 2026-05-04 09:04 | 51.47003 | -1.12689 | 13788 ft | 219 kts | 14° |
| 2026-05-04 09:04 | 51.48487 | -1.12079 | 14024 ft | 221 kts | 14° |
| 2026-05-04 09:04 | 51.49977 | -1.11469 | 14247 ft | 222 kts | 14° |
| 2026-05-04 09:04 | 51.51457 | -1.10854 | 14477 ft | 222 kts | 14° |
| 2026-05-04 09:05 | 51.52956 | -1.10217 | 14700 ft | 223 kts | 15° |
| 2026-05-04 09:05 | 51.54459 | -1.09570 | 14917 ft | 224 kts | 15° |
| 2026-05-04 09:05 | 51.55966 | -1.08918 | 15128 ft | 225 kts | 15° |
| 2026-05-04 09:05 | 51.57479 | -1.08264 | 15344 ft | 225 kts | 15° |
| 2026-05-04 09:06 | 51.58991 | -1.07610 | 15560 ft | 226 kts | 15° |
| 2026-05-04 09:07 | 51.69831 | -1.04428 | 16972 ft | 231 kts | 8° |
| 2026-05-04 09:08 | 51.71421 | -1.04025 | 17150 ft | 232 kts | 8° |
| 2026-05-04 09:08 | 51.73016 | -1.03616 | 17332 ft | 232 kts | 8° |
| 2026-05-04 09:08 | 51.74619 | -1.03205 | 17504 ft | 233 kts | 8° |
| 2026-05-04 09:08 | 51.76202 | -1.02800 | 17669 ft | 234 kts | 8° |
| 2026-05-04 09:09 | 51.77818 | -1.02385 | 17854 ft | 235 kts | 8° |
| 2026-05-04 09:09 | 51.79446 | -1.01963 | 17947 ft | 240 kts | 9° |
| 2026-05-04 09:09 | 51.81116 | -1.01528 | 17993 ft | 246 kts | 8° |
| 2026-05-04 09:09 | 51.82828 | -1.01068 | 18010 ft | 253 kts | 9° |
| 2026-05-04 09:10 | 51.84582 | -1.00602 | 18018 ft | 257 kts | 6° |
| 2026-05-04 09:10 | 51.86363 | -1.00778 | 18022 ft | 258 kts | 347° |
| 2026-05-04 09:10 | 51.88119 | -1.01431 | 18021 ft | 261 kts | 344° |
| 2026-05-04 09:10 | 51.89886 | -1.02150 | 18022 ft | 263 kts | 344° |
| 2026-05-04 09:11 | 51.91684 | -1.02837 | 18024 ft | 266 kts | 346° |
| 2026-05-04 09:11 | 51.93509 | -1.03449 | 18023 ft | 268 kts | 347° |
| 2026-05-04 09:11 | 51.95323 | -1.04025 | 18021 ft | 270 kts | 347° |
| 2026-05-04 09:11 | 51.97197 | -1.04632 | 18023 ft | 271 kts | 347° |
| 2026-05-04 09:12 | 51.99022 | -1.05233 | 18021 ft | 272 kts | 347° |
| 2026-05-04 09:12 | 52.00881 | -1.05847 | 18021 ft | 273 kts | 347° |
| 2026-05-04 09:14 | 52.13961 | -1.10108 | 18041 ft | 274 kts | 347° |
| 2026-05-04 09:14 | 52.15828 | -1.10720 | 18045 ft | 274 kts | 347° |
| 2026-05-04 09:14 | 52.17697 | -1.11341 | 18043 ft | 274 kts | 347° |
| 2026-05-04 09:14 | 52.19510 | -1.12189 | 18043 ft | 272 kts | 337° |
| 2026-05-04 09:15 | 52.21256 | -1.13387 | 18045 ft | 271 kts | 334° |
| 2026-05-04 09:15 | 52.22975 | -1.14656 | 18045 ft | 271 kts | 333° |
| 2026-05-04 09:15 | 52.24701 | -1.15907 | 18046 ft | 272 kts | 334° |
| 2026-05-04 09:15 | 52.26446 | -1.17100 | 18044 ft | 272 kts | 336° |
| 2026-05-04 09:17 | 52.40408 | -1.26509 | 18035 ft | 271 kts | 335° |
| 2026-05-04 09:18 | 52.42152 | -1.27690 | 18020 ft | 271 kts | 335° |
| 2026-05-04 09:18 | 52.43897 | -1.28872 | 18016 ft | 271 kts | 335° |
| 2026-05-04 09:18 | 52.45619 | -1.30040 | 18013 ft | 271 kts | 335° |
| 2026-05-04 09:18 | 52.47358 | -1.31222 | 18009 ft | 271 kts | 335° |
| 2026-05-04 09:19 | 52.49110 | -1.32409 | 18006 ft | 271 kts | 335° |
| 2026-05-04 09:19 | 52.50852 | -1.33596 | 18003 ft | 271 kts | 335° |
| 2026-05-04 09:19 | 52.52449 | -1.35138 | 18007 ft | 264 kts | 312° |
| 2026-05-04 09:19 | 52.53592 | -1.37414 | 17994 ft | 260 kts | 304° |
| 2026-05-04 09:20 | 52.54665 | -1.39814 | 17996 ft | 260 kts | 303° |
| 2026-05-04 09:20 | 52.55748 | -1.42198 | 17987 ft | 261 kts | 305° |
| 2026-05-04 09:20 | 52.56883 | -1.44533 | 17997 ft | 262 kts | 307° |
| 2026-05-04 09:20 | 52.58055 | -1.46839 | 17999 ft | 263 kts | 307° |
| 2026-05-04 09:21 | 52.59224 | -1.49153 | 17994 ft | 263 kts | 307° |
| 2026-05-04 09:21 | 52.60393 | -1.51482 | 18002 ft | 264 kts | 307° |
| 2026-05-04 09:21 | 52.61567 | -1.53816 | 17996 ft | 264 kts | 307° |
| 2026-05-04 09:21 | 52.62737 | -1.56154 | 18002 ft | 264 kts | 307° |
| 2026-05-04 09:22 | 52.63906 | -1.58486 | 17992 ft | 264 kts | 307° |
| 2026-05-04 09:22 | 52.65059 | -1.60793 | 18000 ft | 264 kts | 307° |
| 2026-05-04 09:22 | 52.66230 | -1.63129 | 18001 ft | 264 kts | 307° |
| 2026-05-04 09:22 | 52.67398 | -1.65469 | 18011 ft | 265 kts | 307° |
| 2026-05-04 09:23 | 52.68568 | -1.67812 | 18014 ft | 265 kts | 307° |
| 2026-05-04 09:23 | 52.69737 | -1.70158 | 18014 ft | 265 kts | 307° |
| 2026-05-04 09:23 | 52.70907 | -1.72506 | 18012 ft | 265 kts | 307° |
| 2026-05-04 09:23 | 52.72075 | -1.74853 | 18016 ft | 265 kts | 307° |
| 2026-05-04 09:25 | 52.80224 | -1.91287 | 18055 ft | 264 kts | 307° |
| 2026-05-04 09:25 | 52.81382 | -1.93634 | 18059 ft | 263 kts | 307° |
| 2026-05-04 09:26 | 52.82542 | -1.95981 | 18062 ft | 263 kts | 307° |
| 2026-05-04 09:26 | 52.83699 | -1.98328 | 18056 ft | 263 kts | 307° |
| 2026-05-04 09:26 | 52.84857 | -2.00675 | 18058 ft | 263 kts | 307° |
| 2026-05-04 09:26 | 52.86012 | -2.03029 | 18061 ft | 263 kts | 307° |
| 2026-05-04 09:27 | 52.87171 | -2.05380 | 18063 ft | 264 kts | 307° |
| 2026-05-04 09:27 | 52.88328 | -2.07739 | 18058 ft | 264 kts | 308° |
| 2026-05-04 09:27 | 52.89491 | -2.10100 | 18058 ft | 264 kts | 308° |
| 2026-05-04 09:27 | 52.90635 | -2.12436 | 18058 ft | 265 kts | 308° |
| 2026-05-04 09:28 | 52.91797 | -2.14801 | 18058 ft | 265 kts | 307° |
| 2026-05-04 09:28 | 52.92958 | -2.17173 | 18052 ft | 265 kts | 307° |
| 2026-05-04 09:28 | 52.94114 | -2.19548 | 18058 ft | 265 kts | 308° |
| 2026-05-04 09:28 | 52.95274 | -2.21921 | 18061 ft | 265 kts | 307° |
| 2026-05-04 09:29 | 52.96431 | -2.24292 | 18058 ft | 265 kts | 307° |
| 2026-05-04 09:29 | 52.97588 | -2.26671 | 18056 ft | 264 kts | 307° |
| 2026-05-04 09:29 | 52.98749 | -2.29050 | 18056 ft | 265 kts | 308° |
| 2026-05-04 09:29 | 52.99905 | -2.31426 | 18057 ft | 265 kts | 309° |
| 2026-05-04 09:30 | 53.01050 | -2.33773 | 18055 ft | 265 kts | 309° |
| 2026-05-04 09:30 | 53.02212 | -2.36170 | 18059 ft | 265 kts | 309° |
| 2026-05-04 09:30 | 53.03373 | -2.38565 | 18056 ft | 266 kts | 309° |
| 2026-05-04 09:30 | 53.04534 | -2.40960 | 18059 ft | 266 kts | 309° |
| 2026-05-04 09:31 | 53.05680 | -2.43327 | 18053 ft | 266 kts | 309° |
| 2026-05-04 09:31 | 53.06840 | -2.45726 | 18061 ft | 266 kts | 308° |
| 2026-05-04 09:31 | 53.08002 | -2.48129 | 18065 ft | 266 kts | 309° |
| 2026-05-04 09:31 | 53.09163 | -2.50532 | 18052 ft | 266 kts | 309° |
| 2026-05-04 09:32 | 53.10326 | -2.52936 | 18066 ft | 266 kts | 308° |
| 2026-05-04 09:32 | 53.11485 | -2.55343 | 18056 ft | 266 kts | 309° |
| 2026-05-04 09:34 | 53.19590 | -2.72216 | 18060 ft | 267 kts | 309° |
| 2026-05-04 09:34 | 53.20750 | -2.74641 | 18064 ft | 268 kts | 309° |
| 2026-05-04 09:34 | 53.21916 | -2.77076 | 18055 ft | 268 kts | 309° |
| 2026-05-04 09:34 | 53.23076 | -2.79513 | 18069 ft | 267 kts | 309° |
| 2026-05-04 09:35 | 53.24237 | -2.81942 | 18073 ft | 267 kts | 309° |
| 2026-05-04 09:35 | 53.25380 | -2.84338 | 18072 ft | 267 kts | 309° |
| 2026-05-04 09:35 | 53.26534 | -2.86769 | 18073 ft | 267 kts | 309° |
| 2026-05-04 09:35 | 53.27687 | -2.89193 | 18078 ft | 267 kts | 309° |
| 2026-05-04 09:37 | 53.35754 | -3.06221 | 18072 ft | 267 kts | 309° |
| 2026-05-04 09:37 | 53.36904 | -3.08665 | 18063 ft | 267 kts | 309° |
| 2026-05-04 09:38 | 53.38060 | -3.11115 | 18075 ft | 267 kts | 309° |
| 2026-05-04 09:38 | 53.39193 | -3.13529 | 18075 ft | 267 kts | 309° |
| 2026-05-04 09:38 | 53.40427 | -3.15837 | 18075 ft | 266 kts | 317° |
| 2026-05-04 09:38 | 53.41771 | -3.17980 | 18070 ft | 266 kts | 318° |
| 2026-05-04 09:39 | 53.43116 | -3.20115 | 18069 ft | 266 kts | 317° |
| 2026-05-04 09:39 | 53.44436 | -3.22297 | 18067 ft | 266 kts | 316° |
| 2026-05-04 09:39 | 53.45736 | -3.24508 | 18067 ft | 266 kts | 316° |
| 2026-05-04 09:39 | 53.47035 | -3.26724 | 18073 ft | 266 kts | 316° |
| 2026-05-04 09:40 | 53.48313 | -3.28921 | 18072 ft | 266 kts | 315° |
| 2026-05-04 09:40 | 53.49610 | -3.31153 | 18077 ft | 266 kts | 315° |
| 2026-05-04 09:40 | 53.50908 | -3.33373 | 18071 ft | 266 kts | 315° |
| 2026-05-04 09:40 | 53.52210 | -3.35589 | 18075 ft | 266 kts | 315° |
| 2026-05-04 09:41 | 53.53509 | -3.37812 | 18075 ft | 266 kts | 316° |
| 2026-05-04 09:42 | 53.61709 | -3.54557 | 18072 ft | 266 kts | 306° |
| 2026-05-04 09:43 | 53.62773 | -3.57114 | 18077 ft | 267 kts | 307° |
| 2026-05-04 09:43 | 53.63847 | -3.59665 | 18077 ft | 267 kts | 306° |
| 2026-05-04 09:43 | 53.64924 | -3.62217 | 18081 ft | 267 kts | 307° |
| 2026-05-04 09:43 | 53.66000 | -3.64776 | 18077 ft | 267 kts | 307° |
| 2026-05-04 09:44 | 53.67056 | -3.67311 | 18073 ft | 267 kts | 307° |
| 2026-05-04 09:44 | 53.68130 | -3.69867 | 18084 ft | 267 kts | 307° |
| 2026-05-04 09:44 | 53.69202 | -3.72430 | 18067 ft | 267 kts | 306° |
| 2026-05-04 09:46 | 53.76648 | -3.90345 | 18084 ft | 265 kts | 306° |
| 2026-05-04 09:46 | 53.77699 | -3.92872 | 18077 ft | 265 kts | 306° |
| 2026-05-04 09:46 | 53.78757 | -3.95423 | 18084 ft | 265 kts | 306° |
| 2026-05-04 09:47 | 53.79814 | -3.97988 | 18087 ft | 265 kts | 306° |
| 2026-05-04 09:47 | 53.80869 | -4.00553 | 18087 ft | 265 kts | 306° |
| 2026-05-04 09:49 | 53.88252 | -4.18495 | 18086 ft | 265 kts | 306° |
| 2026-05-04 09:49 | 53.89305 | -4.21068 | 18082 ft | 266 kts | 306° |
| 2026-05-04 09:49 | 53.90350 | -4.23613 | 18081 ft | 266 kts | 306° |
| 2026-05-04 09:51 | 53.96664 | -4.39004 | 18078 ft | 264 kts | 306° |
| 2026-05-04 09:51 | 53.97707 | -4.41578 | 18075 ft | 264 kts | 306° |
| 2026-05-04 09:51 | 53.98744 | -4.44147 | 18071 ft | 264 kts | 307° |
| 2026-05-04 09:51 | 53.99781 | -4.46724 | 18069 ft | 264 kts | 306° |
| 2026-05-04 09:52 | 54.00853 | -4.49369 | 17595 ft | 280 kts | 307° |
| 2026-05-04 09:52 | 54.02002 | -4.52177 | 17033 ft | 294 kts | 307° |
| 2026-05-04 09:52 | 54.03316 | -4.54823 | 16520 ft | 296 kts | 314° |
| 2026-05-04 09:52 | 54.04750 | -4.57309 | 16018 ft | 292 kts | 316° |
| 2026-05-04 09:53 | 54.06165 | -4.59769 | 15500 ft | 289 kts | 315° |
| 2026-05-04 09:53 | 54.07530 | -4.62256 | 15010 ft | 286 kts | 313° |
| 2026-05-04 09:53 | 54.08867 | -4.64762 | 14519 ft | 284 kts | 313° |
| 2026-05-04 09:53 | 54.10196 | -4.67238 | 14034 ft | 282 kts | 313° |
| 2026-05-04 09:54 | 54.11499 | -4.69669 | 13528 ft | 280 kts | 313° |
| 2026-05-04 09:54 | 54.12814 | -4.72119 | 12994 ft | 279 kts | 313° |
| 2026-05-04 09:54 | 54.14117 | -4.74561 | 12475 ft | 277 kts | 313° |
| 2026-05-04 09:54 | 54.15414 | -4.76983 | 11957 ft | 276 kts | 313° |
| 2026-05-04 09:55 | 54.16271 | -4.78584 | 11615 ft | 275 kts | 313° |
| 2026-05-04 09:55 | 54.17555 | -4.80991 | 11111 ft | 273 kts | 313° |
| 2026-05-04 09:55 | 54.18829 | -4.83382 | 10613 ft | 271 kts | 313° |
| 2026-05-04 09:55 | 54.20099 | -4.85757 | 10126 ft | 270 kts | 313° |
| 2026-05-04 09:56 | 54.21340 | -4.88101 | 9625 ft | 268 kts | 313° |
| 2026-05-04 09:56 | 54.22583 | -4.90469 | 9082 ft | 265 kts | 312° |
| 2026-05-04 09:56 | 54.23814 | -4.92803 | 8565 ft | 264 kts | 312° |
| 2026-05-04 09:56 | 54.25039 | -4.95122 | 8044 ft | 262 kts | 312° |
| 2026-05-04 09:57 | 54.26266 | -4.97429 | 7563 ft | 260 kts | 311° |
| 2026-05-04 09:57 | 54.27462 | -4.99679 | 7315 ft | 250 kts | 311° |
| 2026-05-04 09:57 | 54.28607 | -5.01831 | 7199 ft | 242 kts | 311° |
| 2026-05-04 09:57 | 54.29735 | -5.03994 | 7150 ft | 250 kts | 311° |
| 2026-05-04 09:58 | 54.30897 | -5.06240 | 7122 ft | 254 kts | 311° |
| 2026-05-04 09:58 | 54.32087 | -5.08498 | 7107 ft | 256 kts | 311° |
| 2026-05-04 09:58 | 54.33284 | -5.10773 | 7103 ft | 257 kts | 311° |
| 2026-05-04 10:00 | 54.41684 | -5.26656 | 7103 ft | 257 kts | 310° |
| 2026-05-04 10:00 | 54.42869 | -5.28943 | 7101 ft | 256 kts | 311° |
| 2026-05-04 10:02 | 54.43248 | -5.47821 | 5381 ft | 239 kts | 253° |
| 2026-05-04 10:04 | 54.39918 | -5.65055 | 4218 ft | 218 kts | 253° |
| 2026-05-04 10:04 | 54.39432 | -5.67502 | 3902 ft | 220 kts | 253° |
| 2026-05-04 10:04 | 54.38934 | -5.70002 | 3563 ft | 222 kts | 253° |
| 2026-05-04 10:04 | 54.38445 | -5.72476 | 3427 ft | 216 kts | 253° |
| 2026-05-04 10:05 | 54.37954 | -5.74902 | 3261 ft | 217 kts | 253° |
| 2026-05-04 10:05 | 54.37586 | -5.77410 | 3121 ft | 218 kts | 272° |
| 2026-05-04 10:05 | 54.38040 | -5.79916 | 3044 ft | 227 kts | 299° |
| 2026-05-04 10:05 | 54.38812 | -5.82301 | 2970 ft | 236 kts | 301° |
| 2026-05-04 10:06 | 54.39647 | -5.84703 | 2828 ft | 231 kts | 303° |
| 2026-05-04 10:06 | 54.40485 | -5.87033 | 2667 ft | 227 kts | 303° |
| 2026-05-04 10:06 | 54.41312 | -5.89321 | 2500 ft | 223 kts | 303° |
| 2026-05-04 10:08 | 54.46077 | -6.01739 | 1978 ft | 170 kts | 338° |
| 2026-05-04 10:08 | 54.47190 | -6.02196 | 2013 ft | 160 kts | 353° |
| 2026-05-04 10:08 | 54.48265 | -6.02352 | 1995 ft | 152 kts | 358° |
| 2026-05-04 10:08 | 54.49229 | -6.01799 | 1989 ft | 146 kts | 28° |
| 2026-05-04 10:09 | 54.50098 | -6.00949 | 2007 ft | 141 kts | 27° |
| 2026-05-04 10:09 | 54.50925 | -6.00150 | 2022 ft | 131 kts | 27° |
| 2026-05-04 10:09 | 54.51692 | -5.99359 | 1997 ft | 126 kts | 30° |
| 2026-05-04 10:09 | 54.52408 | -5.98515 | 1977 ft | 123 kts | 33° |
| 2026-05-04 10:10 | 54.53096 | -5.97668 | 1965 ft | 122 kts | 33° |
| 2026-05-04 10:10 | 54.53811 | -5.96778 | 1786 ft | 130 kts | 33° |
| 2026-05-04 10:10 | 54.54565 | -5.95878 | 1617 ft | 133 kts | 32° |
| 2026-05-04 10:10 | 54.55341 | -5.94981 | 1453 ft | 136 kts | 31° |
| 2026-05-04 10:11 | 54.56124 | -5.94049 | 1279 ft | 136 kts | 31° |
| 2026-05-04 10:11 | 54.56857 | -5.93165 | 1088 ft | 124 kts | 31° |
| 2026-05-04 10:11 | 54.57540 | -5.92342 | 927 ft | 115 kts | 31° |
| 2026-05-04 10:11 | 54.58192 | -5.91564 | 758 ft | 113 kts | 31° |
| 2026-05-04 10:12 | 54.58842 | -5.90820 | 621 ft | 112 kts | 32° |
| 2026-05-04 10:12 | 54.59485 | -5.90054 | 466 ft | 114 kts | 32° |
| 2026-05-04 10:12 | 54.60136 | -5.89250 | 334 ft | 115 kts | 32° |
| 2026-05-04 10:12 | 54.60798 | -5.88455 | 155 ft | 115 kts | 32° |
| 2026-05-04 10:13 | 54.61434 | -5.87699 | 18 ft | 103 kts | 30° |
| 2026-05-04 10:13 | 54.61865 | -5.87185 | 16 ft | 57 kts | 33° |
| 2026-05-04 10:13 | 54.62110 | -5.86893 | 13 ft | 35 kts | 37° |
| 2026-05-04 10:13 | 54.62231 | -5.86758 | 19 ft | 6 kts | 96° |
| 2026-05-04 10:14 | 54.62184 | -5.86800 | 15 ft | 20 kts | 217° |
| 2026-05-04 10:14 | 54.62066 | -5.86946 | 13 ft | 20 kts | 215° |
| 2026-05-04 10:16 | 54.61612 | -5.87052 | 19 ft | 7 kts | 124° |
| 2026-05-04 10:16 | 54.61599 | -5.87021 | 18 ft | 0 kts | 124° |